Time,TemperatureF,DewpointF,PressureIn,WindDirection,WindDirectionDegrees,WindSpeedMPH,WindSpeedGustMPH,Humidity,HourlyPrecipIn,Conditions,Clouds,dailyrainin,SoftwareType,DateUTC
2013-02-06 00:02:00,49.3,47.0,30.03,West,281,0.0,0.0,91,0.00,,,0.00,weatherlink.com 1.10,2013-02-06 05:02:00,
2013-02-06 00:17:00,48.6,46.0,30.03,West,281,0.0,0.0,92,0.00,,,0.00,weatherlink.com 1.10,2013-02-06 05:17:00,
2013-02-06 00:32:00,48.1,46.0,30.03,West,281,0.0,0.0,93,0.00,,,0.00,weatherlink.com 1.10,2013-02-06 05:32:00,
2013-02-06 00:48:00,47.9,46.0,30.04,West,281,0.0,0.0,94,0.00,,,0.00,weatherlink.com 1.10,2013-02-06 05:48:00,
2013-02-06 01:03:00,48.7,47.0,30.04,West,281,0.0,1.0,95,0.00,,,0.00,weatherlink.com 1.10,2013-02-06 06:03:00,
2013-02-06 01:17:00,48.2,47.0,30.04,West,281,0.0,1.0,94,0.00,,,0.00,weatherlink.com 1.10,2013-02-06 06:17:00,
2013-02-06 01:32:00,48.2,47.0,30.04,West,281,0.0,0.0,95,0.00,,,0.00,weatherlink.com 1.10,2013-02-06 06:32:00,
2013-02-06 01:48:00,48.0,46.0,30.04,West,281,0.0,1.0,94,0.00,,,0.00,weatherlink.com 1.10,2013-02-06 06:48:00,
2013-02-06 02:02:00,47.4,46.0,30.04,West,281,0.0,1.0,94,0.00,,,0.00,weatherlink.com 1.10,2013-02-06 07:02:00,
2013-02-06 02:17:00,47.5,47.0,30.05,West,281,0.0,0.0,96,0.00,,,0.00,weatherlink.com 1.10,2013-02-06 07:17:00,
2013-02-06 02:33:00,48.5,48.0,30.04,WSW,246,0.0,1.0,96,0.00,,,0.00,weatherlink.com 1.10,2013-02-06 07:33:00,
2013-02-06 02:48:00,48.6,47.0,30.04,West,274,0.0,1.0,95,0.00,,,0.00,weatherlink.com 1.10,2013-02-06 07:48:00,
2013-02-06 03:03:00,48.4,47.0,30.04,West,274,0.0,1.0,95,0.00,,,0.00,weatherlink.com 1.10,2013-02-06 08:03:00,
2013-02-06 03:18:00,48.9,48.0,30.04,West,272,1.0,1.0,95,0.00,,,0.00,weatherlink.com 1.10,2013-02-06 08:18:00,
2013-02-06 03:33:00,49.1,48.0,30.05,West,268,0.0,1.0,94,0.00,,,0.00,weatherlink.com 1.10,2013-02-06 08:33:00,
2013-02-06 03:48:00,48.9,47.0,30.04,West,267,0.0,1.0,94,0.00,,,0.00,weatherlink.com 1.10,2013-02-06 08:48:00,
2013-02-06 04:18:00,47.7,46.0,30.05,West,267,0.0,1.0,95,0.00,,,0.00,weatherlink.com 1.10,2013-02-06 09:18:00,
2013-02-06 04:33:00,48.2,47.0,30.06,West,267,0.0,1.0,95,0.00,,,0.00,weatherlink.com 1.10,2013-02-06 09:33:00,
2013-02-06 04:48:00,47.8,47.0,30.06,West,267,0.0,0.0,95,0.00,,,0.00,weatherlink.com 1.10,2013-02-06 09:48:00,
2013-02-06 05:18:00,48.0,47.0,30.06,West,267,0.0,1.0,96,0.00,,,0.00,weatherlink.com 1.10,2013-02-06 10:18:00,
2013-02-06 05:33:00,47.8,47.0,30.06,NW,312,0.0,1.0,96,0.00,,,0.00,weatherlink.com 1.10,2013-02-06 10:33:00,
2013-02-06 05:48:00,47.8,47.0,30.07,NW,311,0.0,1.0,96,0.00,,,0.00,weatherlink.com 1.10,2013-02-06 10:48:00,
2013-02-06 06:03:00,48.0,47.0,30.07,NW,309,0.0,1.0,96,0.00,,,0.00,weatherlink.com 1.10,2013-02-06 11:03:00,
2013-02-06 06:18:00,47.8,47.0,30.08,NW,309,0.0,1.0,96,0.00,,,0.00,weatherlink.com 1.10,2013-02-06 11:18:00,
2013-02-06 06:33:00,47.4,46.0,30.09,WNW,291,0.0,1.0,96,0.00,,,0.00,weatherlink.com 1.10,2013-02-06 11:33:00,
2013-02-06 06:48:00,46.9,46.0,30.09,WNW,291,0.0,1.0,96,0.00,,,0.00,weatherlink.com 1.10,2013-02-06 11:48:00,
2013-02-06 07:03:00,46.5,46.0,30.10,WNW,291,0.0,0.0,96,0.00,,,0.00,weatherlink.com 1.10,2013-02-06 12:03:00,
2013-02-06 07:18:00,45.8,45.0,30.11,NW,305,0.0,1.0,96,0.00,,,0.00,weatherlink.com 1.10,2013-02-06 12:18:00,
2013-02-06 07:33:00,45.4,45.0,30.12,NW,305,0.0,1.0,97,0.00,,,0.00,weatherlink.com 1.10,2013-02-06 12:33:00,
2013-02-06 07:48:00,46.2,45.0,30.12,NNW,333,1.0,1.0,97,0.00,,,0.00,weatherlink.com 1.10,2013-02-06 12:48:00,
2013-02-06 08:03:00,46.9,46.0,30.13,SW,222,0.0,1.0,97,0.00,,,0.00,weatherlink.com 1.10,2013-02-06 13:03:00,
2013-02-06 08:18:00,48.2,48.0,30.13,SSW,193,0.0,1.0,98,0.00,,,0.00,weatherlink.com 1.10,2013-02-06 13:18:00,
2013-02-06 08:33:00,49.6,49.0,30.14,ESE,114,0.0,1.0,98,0.00,,,0.00,weatherlink.com 1.10,2013-02-06 13:33:00,
2013-02-06 08:48:00,51.8,51.0,30.14,NW,304,0.0,2.0,96,0.00,,,0.00,weatherlink.com 1.10,2013-02-06 13:48:00,
2013-02-06 09:04:00,54.2,51.0,30.15,WNW,300,0.0,2.0,90,0.00,,,0.00,weatherlink.com 1.10,2013-02-06 14:04:00,
2013-02-06 09:18:00,56.0,51.0,30.15,SW,226,2.0,4.0,84,0.00,,,0.00,weatherlink.com 1.10,2013-02-06 14:18:00,
2013-02-06 09:34:00,57.1,51.0,30.15,WSW,243,0.0,4.0,80,0.00,,,0.00,weatherlink.com 1.10,2013-02-06 14:34:00,
2013-02-06 09:49:00,58.4,51.0,30.16,West,277,1.0,3.0,77,0.00,,,0.00,weatherlink.com 1.10,2013-02-06 14:49:00,
2013-02-06 10:04:00,59.7,51.0,30.16,WNW,295,2.0,3.0,74,0.00,,,0.00,weatherlink.com 1.10,2013-02-06 15:04:00,
2013-02-06 10:19:00,61.2,52.0,30.16,ENE,62,1.0,2.0,71,0.00,,,0.00,weatherlink.com 1.10,2013-02-06 15:19:00,
2013-02-06 10:34:00,62.6,51.0,30.16,NNW,337,1.0,4.0,66,0.00,,,0.00,weatherlink.com 1.10,2013-02-06 15:34:00,
2013-02-06 10:49:00,64.1,52.0,30.16,North,1,0.0,3.0,64,0.00,,,0.00,weatherlink.com 1.10,2013-02-06 15:49:00,
2013-02-06 11:04:00,65.0,51.0,30.16,South,180,0.0,3.0,61,0.00,,,0.00,weatherlink.com 1.10,2013-02-06 16:04:00,
2013-02-06 11:19:00,66.1,50.0,30.16,NNE,29,2.0,4.0,57,0.00,,,0.00,weatherlink.com 1.10,2013-02-06 16:19:00,
2013-02-06 11:34:00,66.8,48.0,30.16,NNW,338,2.0,4.0,52,0.00,,,0.00,weatherlink.com 1.10,2013-02-06 16:34:00,
2013-02-06 11:49:00,67.7,50.0,30.16,WSW,255,1.0,3.0,53,0.00,,,0.00,weatherlink.com 1.10,2013-02-06 16:49:00,
2013-02-06 12:04:00,68.6,48.0,30.15,WSW,249,0.0,2.0,48,0.00,,,0.00,weatherlink.com 1.10,2013-02-06 17:04:00,
2013-02-06 12:19:00,68.0,51.0,30.15,East,84,1.0,3.0,54,0.00,,,0.00,weatherlink.com 1.10,2013-02-06 17:19:00,
2013-02-06 12:34:00,66.7,50.0,30.14,SE,128,4.0,4.0,56,0.00,,,0.00,weatherlink.com 1.10,2013-02-06 17:34:00,
2013-02-06 12:49:00,65.3,50.0,30.14,East,82,4.0,7.0,59,0.00,,,0.00,weatherlink.com 1.10,2013-02-06 17:49:00,
2013-02-06 13:04:00,64.1,51.0,30.14,ENE,75,4.0,8.0,63,0.00,,,0.00,weatherlink.com 1.10,2013-02-06 18:04:00,
2013-02-06 13:19:00,64.5,50.0,30.13,ESE,106,3.0,4.0,59,0.00,,,0.00,weatherlink.com 1.10,2013-02-06 18:19:00,
2013-02-06 13:34:00,64.6,48.0,30.13,ENE,60,2.0,5.0,56,0.00,,,0.00,weatherlink.com 1.10,2013-02-06 18:34:00,
2013-02-06 13:49:00,64.1,46.0,30.12,East,86,3.0,6.0,53,0.00,,,0.00,weatherlink.com 1.10,2013-02-06 18:49:00,
2013-02-06 14:04:00,64.5,48.0,30.12,WSW,248,0.0,5.0,56,0.00,,,0.00,weatherlink.com 1.10,2013-02-06 19:04:00,
2013-02-06 14:19:00,63.7,50.0,30.12,SW,225,5.0,7.0,61,0.00,,,0.00,weatherlink.com 1.10,2013-02-06 19:19:00,
2013-02-06 14:35:00,63.3,49.0,30.12,SW,225,2.0,6.0,60,0.00,,,0.00,weatherlink.com 1.10,2013-02-06 19:35:00,
2013-02-06 14:49:00,63.5,51.0,30.12,West,259,3.0,6.0,63,0.00,,,0.00,weatherlink.com 1.10,2013-02-06 19:49:00,
2013-02-06 15:05:00,62.8,52.0,30.12,SE,141,1.0,6.0,69,0.00,,,0.00,weatherlink.com 1.10,2013-02-06 20:05:00,
2013-02-06 15:19:00,62.3,50.0,30.12,ENE,65,1.0,5.0,64,0.00,,,0.00,weatherlink.com 1.10,2013-02-06 20:19:00,
2013-02-06 15:34:00,62.8,50.0,30.12,NNW,342,0.0,4.0,63,0.00,,,0.00,weatherlink.com 1.10,2013-02-06 20:34:00,
2013-02-06 15:49:00,62.8,49.0,30.13,West,259,2.0,3.0,62,0.00,,,0.00,weatherlink.com 1.10,2013-02-06 20:49:00,
2013-02-06 16:04:00,61.7,51.0,30.13,South,187,1.0,4.0,68,0.00,,,0.00,weatherlink.com 1.10,2013-02-06 21:04:00,
2013-02-06 16:19:00,61.6,51.0,30.13,SSE,159,0.0,3.0,68,0.00,,,0.00,weatherlink.com 1.10,2013-02-06 21:19:00,
2013-02-06 16:34:00,60.5,50.0,30.13,ESE,118,1.0,3.0,68,0.00,,,0.00,weatherlink.com 1.10,2013-02-06 21:34:00,
2013-02-06 16:49:00,60.0,50.0,30.13,SW,228,1.0,2.0,69,0.00,,,0.00,weatherlink.com 1.10,2013-02-06 21:49:00,
2013-02-06 17:04:00,59.6,50.0,30.13,West,266,0.0,1.0,70,0.00,,,0.00,weatherlink.com 1.10,2013-02-06 22:04:00,
2013-02-06 17:20:00,59.0,50.0,30.14,SW,230,0.0,2.0,71,0.00,,,0.00,weatherlink.com 1.10,2013-02-06 22:20:00,
2013-02-06 17:35:00,58.1,49.0,30.15,SW,230,0.0,0.0,73,0.00,,,0.00,weatherlink.com 1.10,2013-02-06 22:35:00,
2013-02-06 17:49:00,56.2,49.0,30.15,SW,231,0.0,0.0,76,0.00,,,0.00,weatherlink.com 1.10,2013-02-06 22:49:00,
2013-02-06 18:04:00,54.1,48.0,30.15,SW,231,0.0,0.0,80,0.00,,,0.00,weatherlink.com 1.10,2013-02-06 23:04:00,
2013-02-06 18:19:00,52.3,48.0,30.16,SW,231,0.0,0.0,84,0.00,,,0.00,weatherlink.com 1.10,2013-02-06 23:19:00,
2013-02-06 18:34:00,50.9,47.0,30.16,SW,231,0.0,0.0,87,0.00,,,0.00,weatherlink.com 1.10,2013-02-06 23:34:00,
2013-02-06 18:49:00,49.8,47.0,30.17,SW,231,0.0,0.0,89,0.00,,,0.00,weatherlink.com 1.10,2013-02-06 23:49:00,
2013-02-06 19:04:00,48.9,46.0,30.17,SW,231,0.0,0.0,90,0.00,,,0.00,weatherlink.com 1.10,2013-02-07 00:04:00,
2013-02-06 19:19:00,48.2,46.0,30.18,SW,231,0.0,0.0,91,0.00,,,0.00,weatherlink.com 1.10,2013-02-07 00:19:00,
2013-02-06 19:34:00,47.5,45.0,30.18,SW,231,0.0,0.0,92,0.00,,,0.00,weatherlink.com 1.10,2013-02-07 00:34:00,
2013-02-06 19:49:00,46.9,45.0,30.18,SW,231,0.0,0.0,93,0.00,,,0.00,weatherlink.com 1.10,2013-02-07 00:49:00,
2013-02-06 20:04:00,46.2,44.0,30.18,SW,231,0.0,0.0,93,0.00,,,0.00,weatherlink.com 1.10,2013-02-07 01:04:00,
2013-02-06 20:20:00,45.6,44.0,30.19,SW,231,0.0,0.0,94,0.00,,,0.00,weatherlink.com 1.10,2013-02-07 01:20:00,
2013-02-06 20:35:00,45.2,44.0,30.20,SW,231,0.0,0.0,94,0.00,,,0.00,weatherlink.com 1.10,2013-02-07 01:35:00,
2013-02-06 21:05:00,44.3,43.0,30.20,SW,231,0.0,0.0,95,0.00,,,0.00,weatherlink.com 1.10,2013-02-07 02:05:00,
2013-02-06 21:20:00,43.6,42.0,30.20,SW,231,0.0,0.0,95,0.00,,,0.00,weatherlink.com 1.10,2013-02-07 02:20:00,
2013-02-06 21:35:00,43.2,42.0,30.20,SW,231,0.0,0.0,95,0.00,,,0.00,weatherlink.com 1.10,2013-02-07 02:35:00,
2013-02-06 21:50:00,43.0,42.0,30.19,SW,231,0.0,0.0,96,0.00,,,0.00,weatherlink.com 1.10,2013-02-07 02:50:00,
2013-02-06 22:05:00,43.0,42.0,30.19,SW,231,0.0,0.0,96,0.00,,,0.00,weatherlink.com 1.10,2013-02-07 03:05:00,
2013-02-06 22:20:00,43.2,42.0,30.20,WNW,299,0.0,0.0,96,0.00,,,0.00,weatherlink.com 1.10,2013-02-07 03:20:00,
2013-02-06 22:35:00,43.9,43.0,30.20,SE,136,0.0,1.0,97,0.00,,,0.00,weatherlink.com 1.10,2013-02-07 03:35:00,
2013-02-06 22:50:00,44.5,44.0,30.22,SE,135,0.0,0.0,97,0.00,,,0.00,weatherlink.com 1.10,2013-02-07 03:50:00,
2013-02-06 23:05:00,44.3,44.0,30.22,SE,136,0.0,0.0,97,0.00,,,0.00,weatherlink.com 1.10,2013-02-07 04:05:00,
2013-02-06 23:20:00,43.9,43.0,30.22,North,360,0.0,1.0,97,0.00,,,0.00,weatherlink.com 1.10,2013-02-07 04:20:00,
2013-02-06 23:35:00,44.4,44.0,30.21,ESE,103,0.0,1.0,97,0.00,,,0.00,weatherlink.com 1.10,2013-02-07 04:35:00,
2013-02-06 23:50:00,46.3,46.0,30.20,ESE,106,0.0,1.0,98,0.00,,,0.00,weatherlink.com 1.10,2013-02-07 04:50:00,